Airfield :
LOGIN :

Register | Disclaimer

   EN    FR    IT 

 










Legend :    VFR   Marginal VFR   IFR   Intensive IFR   Very Intensive IFR
Visi :
Ceiling :
>= 8 km
>= 3000ft
5 to 8 km
1000 to 3000 ft
1500m to 5 km
500 to 1000 ft
800 to 1500m
200 to 500 ft
< 800m
< 200 ft
Symbols :   Thunderstorms  Fog  Heavy snow  Heavy precipitations  Wind > 20 kt
SIGMETs :     Misc.  Thunderstorms  Icing  Turbulence  Mountain Waves  Volcanic Ashes






- Airport Elevation : -11 ft
- IATA code : AMS


EHAM - Amsterdam Schiphol

CURRENT METAR :
  • 270825Z 19010KT 160V220 9000 -RA FEW010 SCT015 BKN020 03/02 Q0999 TEMPO 7000 BKN012

EXPIRED METARs :
  • 270755Z 18009KT 9999 FEW035 03/02 Q0999 NOSIG
  • 270725Z 17009KT 140V200 9999 FEW034 03/02 Q1000 NOSIG
  • 270655Z 17009KT 9999 FEW040 03/01 Q1000 NOSIG
  • 270625Z 17008KT 140V200 9999 FEW022 03/01 Q1000 NOSIG
  • 270555Z 18004KT 150V210 9999 -SHRA FEW015CB SCT035 03/01 Q1001 BECMG 9999 NSW
  • 270525Z 18009KT 9999 FEW020CB SCT035 03/01 Q1001 TEMPO 7000 -SHRAGS

TAF TAF EHAM
Valid from the 27 at 06:00 until the 28 at 12:00 UTC


270517Z 2706/2812 18008KT 9999 SCT025
BECMG 2708/2711 6000 -RA SCT006 BKN012
TEMPO 2710/2717 4000 RA SCT004 BKN006
PROB30
TEMPO 2711/2716 2500 RASN BKN004
BECMG 2714/2716 31010KT
BECMG 2716/2719 32015G25KT 9999 NSW SCT025
TEMPO 2717/2719 6000 SHRAGS SCT020CB BKN030
BECMG 2720/2723 29010KT
BECMG 2805/2808 21010KT



MET'MAP, your aeronautical weather chart ! - Copyright ORBIFLY December 2007 - Disclaimer

ORBIFLY MET'MAP TEAM :

Programming & Development : Alexandra Zaïnal
Concept & original design : Baudouin d'Aumeries
Assistance for programming : Marc-Olivier Méhu
Technical & hardware support : Manuel Goepfert

Contact : metmap@orbifly.com




SOURCES & CREDITS :

   NOAA